Terminal Aerodrome Forecast
Issued by NWS Mt. Holly, NJ

Home | Current Version | Previous Version | Text Only | Print | Product List | Glossary On
Versions: 1 2 3 4 5 6 7 8 9 10 11 12 13 14 15 16 17 18 19 20 21
000
FTUS41 KPHI 130900 AAB
TAFILG
TAF AMD
KILG 130900Z 1309/1406 18008KT P6SM SCT008 BKN060
      TEMPO 1309/1311 BKN008
     FM131300 19012KT P6SM SCT045 BKN100
     FM131600 20012G20KT P6SM SCT045
     FM132200 20010G20KT P6SM BKN045
      TEMPO 1323/1401 3SM TSRA BR OVC020CB
     FM140100 19008KT P6SM -SHRA OVC035
     FM140300 21006KT P6SM SCT035 BKN100=

USA.gov is the U.S. government's official web portal to all federal, state and local government web resources and services.